Time;durP1;ratioP1;P1;durP2;ratioP2;P2;SDS_P1;SDS_P2;PMS_P1;PMS_P2;Temp;Humidity;BMP_temperature;BMP_pressure;BME280_temperature;BME280_humidity;BME280_pressure;Samples;Min_cycle;Max_cycle;Signal;HPM_P1;HPM_P2
2022/05/02 00:00:24;;;;;;;7.53;3.05;;;;;;;10.31;47.27;100006.95;1674475;84;22275;-72
2022/05/02 00:02:52;;;;;;;6.35;2.85;;;;;;;10.33;47.18;100005.27;1677991;84;21025;-74
2022/05/02 00:05:26;;;;;;;5.65;3.27;;;;;;;10.34;46.96;100011.84;1653292;85;21025;-71
2022/05/02 00:07:52;;;;;;;6.33;3.20;;;;;;;10.36;46.77;100008.78;1678456;84;21686;-75
2022/05/02 00:10:23;;;;;;;5.95;2.42;;;;;;;10.35;46.59;100001.07;1683718;84;21019;-70
2022/05/02 00:12:51;;;;;;;7.80;3.20;;;;;;;10.37;46.45;99998.59;1684734;84;21098;-72
2022/05/02 00:15:18;;;;;;;6.17;2.65;;;;;;;10.38;45.98;99997.45;1683256;84;21016;-70
2022/05/02 00:17:59;;;;;;;9.83;3.10;;;;;;;10.37;45.84;100001.34;1680894;84;21607;-71
2022/05/02 00:20:33;;;;;;;6.12;3.02;;;;;;;10.35;45.80;100000.28;1681295;84;21137;-71
2022/05/02 00:23:07;;;;;;;5.47;2.98;;;;;;;10.35;45.86;100001.07;1681892;84;21085;-71
2022/05/02 00:25:37;;;;;;;5.17;2.60;;;;;;;10.36;45.81;99995.02;1684373;84;21070;-71
2022/05/02 00:28:08;;;;;;;4.78;2.70;;;;;;;10.36;45.82;100000.52;1684048;84;21031;-72
2022/05/02 00:30:39;;;;;;;6.55;2.52;;;;;;;10.36;45.97;99999.14;1669642;85;21043;-72
2022/05/02 00:33:09;;;;;;;5.03;2.67;;;;;;;10.36;45.75;99995.02;1669962;85;21224;-71
2022/05/02 00:35:36;;;;;;;4.65;2.20;;;;;;;10.35;45.51;99995.56;1668076;85;21104;-72
2022/05/02 00:38:07;;;;;;;5.53;2.90;;;;;;;10.37;45.30;99992.53;1666879;84;21099;-76
2022/05/02 00:40:34;;;;;;;4.62;2.62;;;;;;;10.37;45.48;99991.15;1686659;84;21014;-75
2022/05/02 00:43:01;;;;;;;3.72;2.72;;;;;;;10.37;45.47;99992.53;1685938;84;21579;-72
2022/05/02 00:45:28;;;;;;;3.35;1.85;;;;;;;10.37;45.33;99994.45;1681363;84;21197;-74
2022/05/02 00:47:57;;;;;;;4.15;2.60;;;;;;;10.37;45.16;99990.33;1683644;84;21086;-72
2022/05/02 00:50:49;;;;;;;4.25;2.50;;;;;;;10.35;45.10;99994.19;1683695;84;21075;-72
2022/05/02 00:53:17;;;;;;;16.57;3.17;;;;;;;10.34;44.97;99996.70;1664190;84;21055;-71
2022/05/02 00:55:45;;;;;;;8.60;2.40;;;;;;;10.33;44.59;99997.01;1697364;84;21046;-71
2022/05/02 00:58:13;;;;;;;3.12;2.10;;;;;;;10.33;44.74;99994.25;1688915;84;22347;-74
2022/05/02 01:00:41;;;;;;;7.33;2.30;;;;;;;10.32;44.80;99987.13;1682701;84;21027;-70
2022/05/02 01:03:11;;;;;;;5.47;2.17;;;;;;;10.32;44.97;99989.30;1683906;84;21071;-75
2022/05/02 01:08:32;;;;;;;4.72;2.33;;;;;;;10.30;44.87;99984.68;1690945;82;21602;-76
2022/05/02 01:10:59;;;;;;;4.83;2.10;;;;;;;10.29;44.99;99979.45;1658369;84;21254;-73
2022/05/02 01:13:47;;;;;;;4.87;2.58;;;;;;;10.28;44.99;99979.20;1683493;84;21016;-70
2022/05/02 01:16:25;;;;;;;6.67;2.60;;;;;;;10.27;45.18;99985.27;1687255;83;21053;-70
2022/05/02 01:18:55;;;;;;;7.37;2.70;;;;;;;10.26;45.13;99982.82;1683918;84;21066;-71
2022/05/02 01:21:29;;;;;;;5.90;2.75;;;;;;;10.24;45.33;99981.75;1682951;84;21511;-70
2022/05/02 01:24:01;;;;;;;7.30;2.70;;;;;;;10.22;45.14;99974.36;1688814;84;21094;-73
2022/05/02 01:26:30;;;;;;;4.30;2.77;;;;;;;10.20;45.25;99974.66;1684244;84;21035;-72
2022/05/02 01:29:00;;;;;;;6.53;3.08;;;;;;;10.20;45.47;99977.41;1671355;85;21567;-73
2022/05/02 01:31:42;;;;;;;5.65;2.47;;;;;;;10.19;45.91;99974.97;1666855;85;21126;-75
2022/05/02 01:34:08;;;;;;;6.05;2.58;;;;;;;10.12;46.18;99978.13;1666988;84;21468;-72
2022/05/02 01:36:35;;;;;;;4.55;3.05;;;;;;;10.05;46.44;99981.84;1684937;83;21248;-69
2022/05/02 01:39:02;;;;;;;4.58;2.12;;;;;;;9.97;47.34;99982.83;1685220;84;21107;-71
2022/05/02 01:41:31;;;;;;;7.92;3.10;;;;;;;9.92;47.40;99977.97;1681611;84;21031;-73
2022/05/02 01:43:58;;;;;;;5.80;3.17;;;;;;;9.88;47.93;99977.77;1684435;84;21078;-71
2022/05/02 01:46:25;;;;;;;4.95;2.50;;;;;;;9.86;47.67;99969.81;1683527;84;21512;-73
2022/05/02 01:48:52;;;;;;;5.33;2.27;;;;;;;9.85;47.63;99964.61;1666608;84;21224;-70
2022/05/02 01:51:20;;;;;;;4.85;2.22;;;;;;;9.87;47.56;99969.26;1669451;84;21040;-70
2022/05/02 01:53:48;;;;;;;7.83;2.80;;;;;;;9.88;47.53;99970.87;1683146;84;21496;-72
2022/05/02 01:56:15;;;;;;;6.75;2.70;;;;;;;9.90;47.34;99971.40;1685184;84;21082;-71
2022/05/02 01:58:49;;;;;;;4.53;2.50;;;;;;;9.92;47.19;99969.72;1682611;84;21040;-73
2022/05/02 02:01:16;;;;;;;5.00;2.60;;;;;;;9.93;47.25;99966.66;1684419;84;21101;-71
2022/05/02 02:03:42;;;;;;;4.95;2.80;;;;;;;9.95;47.19;99969.92;1682130;84;21106;-71
2022/05/02 02:06:09;;;;;;;7.37;2.47;;;;;;;9.97;47.41;99971.00;1682248;84;21062;-75
2022/05/02 02:08:38;;;;;;;7.95;2.50;;;;;;;9.97;47.38;99975.95;1655448;84;21012;-73
2022/05/02 02:11:07;;;;;;;4.62;2.37;;;;;;;9.99;47.52;99971.52;1680622;84;21067;-74
2022/05/02 02:13:44;;;;;;;6.53;3.35;;;;;;;10.00;47.28;99974.51;1683865;84;21305;-70
2022/05/02 02:16:10;;;;;;;6.40;3.27;;;;;;;10.00;47.09;99972.34;1669691;85;21055;-75
2022/05/02 02:18:38;;;;;;;6.17;3.02;;;;;;;10.00;47.09;99977.84;1670001;85;21409;-75
2022/05/02 02:21:05;;;;;;;5.12;3.12;;;;;;;9.97;47.24;99969.06;1668206;85;21128;-72
2022/05/02 02:23:33;;;;;;;7.37;2.60;;;;;;;9.93;47.27;99963.11;1667331;84;21012;-75
2022/05/02 02:26:00;;;;;;;8.28;2.95;;;;;;;9.87;47.25;99972.02;1684496;84;21296;-73
2022/05/02 02:28:26;;;;;;;7.15;3.05;;;;;;;9.82;47.57;99966.60;1653439;84;21051;-72
2022/05/02 02:30:54;;;;;;;6.08;2.85;;;;;;;9.75;48.08;99965.63;1681875;84;21071;-72
2022/05/02 02:33:23;;;;;;;3.80;2.80;;;;;;;9.67;48.94;99965.75;1684231;84;21098;-72
2022/05/02 02:35:49;;;;;;;6.15;3.12;;;;;;;9.60;50.31;99963.97;1683264;84;21078;-74
2022/05/02 02:38:16;;;;;;;5.53;2.92;;;;;;;9.53;51.16;99965.74;1667044;84;21257;-73
2022/05/02 02:40:42;;;;;;;6.20;2.77;;;;;;;9.46;51.54;99970.27;1669684;84;21468;-71
2022/05/02 02:43:09;;;;;;;4.33;2.52;;;;;;;9.43;51.53;99972.25;1653698;84;21634;-71
2022/05/02 02:45:35;;;;;;;4.53;2.62;;;;;;;9.37;51.51;99967.38;1667566;84;20996;-71
2022/05/02 02:48:05;;;;;;;5.42;3.15;;;;;;;9.37;52.01;99961.05;1684499;84;21054;-72
2022/05/02 02:50:32;;;;;;;6.15;2.90;;;;;;;9.35;52.70;99961.91;1683051;84;21174;-76
2022/05/02 02:53:00;;;;;;;3.98;2.60;;;;;;;9.32;53.27;99963.34;1681532;84;21524;-70
2022/05/02 02:55:29;;;;;;;5.78;2.90;;;;;;;9.31;53.33;99965.84;1683586;84;21046;-73
2022/05/02 02:57:58;;;;;;;8.30;2.67;;;;;;;9.30;53.36;99962.02;1655565;84;21030;-70
2022/05/02 03:00:24;;;;;;;3.85;2.90;;;;;;;9.30;53.37;99962.02;1686095;82;21566;-73
2022/05/02 03:02:52;;;;;;;6.03;2.83;;;;;;;9.29;53.39;99963.12;1659772;84;21271;-70
2022/05/02 03:08:05;;;;;;;5.83;2.50;;;;;;;9.23;53.94;99967.88;1684564;84;21090;-74
2022/05/02 03:10:31;;;;;;;8.43;2.75;;;;;;;9.21;54.02;99966.80;1683127;84;21501;-71
2022/05/02 03:13:00;;;;;;;7.83;3.25;;;;;;;9.16;54.17;99972.38;1667179;84;21147;-71
2022/05/02 03:15:27;;;;;;;5.53;2.70;;;;;;;9.12;54.13;99975.48;1669273;85;21782;-69
2022/05/02 03:17:54;;;;;;;7.25;3.12;;;;;;;9.09;54.30;99978.27;1668497;85;21073;-69
2022/05/02 03:20:23;;;;;;;6.55;2.83;;;;;;;9.08;54.30;99979.94;1666842;85;21064;-70
2022/05/02 03:22:56;;;;;;;8.08;3.37;;;;;;;9.05;54.50;99975.04;1672763;83;21107;-71
2022/05/02 03:25:23;;;;;;;6.40;3.05;;;;;;;9.00;54.39;99975.39;1684442;84;21074;-72
2022/05/02 03:27:54;;;;;;;7.05;2.77;;;;;;;8.93;54.56;99977.70;1682759;84;21979;-74
2022/05/02 03:30:22;;;;;;;11.25;3.15;;;;;;;8.86;54.62;99979.99;1666826;84;21517;-70
2022/05/02 03:32:48;;;;;;;5.08;3.15;;;;;;;8.84;54.95;99983.59;1669088;83;21576;-73
2022/05/02 03:35:18;;;;;;;6.95;3.15;;;;;;;8.83;54.99;99981.42;1678229;85;21116;-72
2022/05/02 03:37:46;;;;;;;4.87;3.10;;;;;;;8.84;55.16;99976.72;1677295;85;21075;-70
2022/05/02 03:40:13;;;;;;;6.20;3.20;;;;;;;8.85;55.33;99981.12;1671672;85;21310;-73
2022/05/02 03:42:44;;;;;;;4.17;2.85;;;;;;;8.84;55.34;99977.55;1670268;85;21076;-71
2022/05/02 03:45:11;;;;;;;4.72;3.00;;;;;;;8.82;55.69;99975.64;1669276;83;21107;-71
2022/05/02 03:47:38;;;;;;;10.65;4.85;;;;;;;8.80;55.97;99983.94;1677951;83;21076;-72
2022/05/02 03:50:05;;;;;;;7.35;4.83;;;;;;;8.77;56.31;99981.20;1667874;85;21055;-75
2022/05/02 03:52:32;;;;;;;6.58;4.15;;;;;;;8.74;56.80;99985.37;1670472;85;21106;-70
2022/05/02 03:55:02;;;;;;;9.53;3.37;;;;;;;8.75;57.09;99985.63;1660584;84;21023;-76
2022/05/02 03:57:30;;;;;;;5.87;3.25;;;;;;;8.76;57.50;99987.28;1684306;84;21032;-73
2022/05/02 03:59:56;;;;;;;6.05;3.65;;;;;;;8.79;57.46;99981.73;1682239;84;21138;-71
2022/05/02 04:02:23;;;;;;;10.48;4.25;;;;;;;8.82;57.16;99983.09;1681811;84;21026;-70
2022/05/02 04:04:51;;;;;;;5.83;3.33;;;;;;;8.85;56.90;99986.61;1680301;84;21090;-72
2022/05/02 04:07:18;;;;;;;6.75;3.40;;;;;;;8.88;57.07;99992.34;1687037;84;21055;-71
2022/05/02 04:09:45;;;;;;;6.03;3.10;;;;;;;8.92;57.06;99989.81;1656739;84;21041;-71
2022/05/02 04:12:11;;;;;;;8.45;3.33;;;;;;;8.99;56.84;99986.69;1692596;84;21127;-72
2022/05/02 04:14:39;;;;;;;6.72;2.67;;;;;;;9.05;56.43;99984.11;1683706;84;21503;-72
2022/05/02 04:17:05;;;;;;;6.10;3.62;;;;;;;9.14;56.56;99988.38;1687345;84;21562;-70
2022/05/02 04:19:32;;;;;;;4.67;2.70;;;;;;;9.24;56.17;99992.35;1686400;84;20984;-72
2022/05/02 04:22:00;;;;;;;5.90;2.60;;;;;;;9.35;55.63;99994.91;1695863;84;21056;-75
2022/05/02 04:24:28;;;;;;;7.83;3.02;;;;;;;9.48;55.16;99998.27;1687054;84;21062;-73
2022/05/02 04:26:57;;;;;;;5.08;2.70;;;;;;;9.60;54.35;99999.16;1685524;84;21091;-71
2022/05/02 04:29:25;;;;;;;6.15;2.90;;;;;;;9.72;53.89;99995.13;1693536;84;21067;-74
2022/05/02 04:31:51;;;;;;;4.33;2.95;;;;;;;9.83;53.24;99997.95;1690571;84;21098;-72
2022/05/02 04:34:21;;;;;;;7.10;3.35;;;;;;;9.94;52.78;99995.83;1687793;84;21127;-76
2022/05/02 04:36:49;;;;;;;6.72;3.15;;;;;;;10.05;51.98;99994.23;1687506;84;21575;-74
2022/05/02 04:39:35;;;;;;;4.17;2.80;;;;;;;10.15;51.14;100000.92;1683695;84;21026;-74
2022/05/02 04:42:04;;;;;;;4.92;2.95;;;;;;;10.26;50.81;99997.42;1699269;84;21704;-70
2022/05/02 04:44:34;;;;;;;5.28;2.25;;;;;;;10.35;50.57;99994.19;1697771;84;21096;-72
2022/05/02 04:47:06;;;;;;;4.75;2.65;;;;;;;10.44;49.90;99991.53;1686469;84;21601;-71
2022/05/02 04:49:32;;;;;;;6.17;2.60;;;;;;;10.54;49.62;99991.11;1685727;84;21024;-71
2022/05/02 04:52:01;;;;;;;5.35;2.40;;;;;;;10.63;49.76;99992.58;1695473;82;21034;-72
2022/05/02 04:54:28;;;;;;;11.10;2.60;;;;;;;10.71;49.68;99987.13;1696451;84;21164;-73
2022/05/02 04:56:55;;;;;;;2.80;2.25;;;;;;;10.80;48.68;99980.88;1684898;84;21039;-72
2022/05/02 04:59:23;;;;;;;8.18;2.65;;;;;;;10.88;48.05;99985.68;1688700;84;21097;-74
2022/05/02 05:01:53;;;;;;;7.33;2.60;;;;;;;10.96;47.88;99985.48;1698652;82;21020;-74
2022/05/02 05:04:21;;;;;;;3.22;2.17;;;;;;;11.05;47.74;99991.88;1663654;84;21071;-71
2022/05/02 05:06:48;;;;;;;5.72;2.42;;;;;;;11.13;47.50;99990.34;1695009;82;21165;-71
2022/05/02 05:09:18;;;;;;;6.28;2.22;;;;;;;11.22;47.33;99988.20;1691925;82;21089;-74
2022/05/02 05:12:06;;;;;;;6.12;2.85;;;;;;;11.30;47.08;99984.14;1681944;84;21130;-72
2022/05/02 05:18:20;;;;;;;5.85;2.67;;;;;;;11.49;46.69;99987.82;1693508;84;21610;-73
2022/05/02 05:20:56;;;;;;;5.03;2.22;;;;;;;11.59;46.00;99989.50;1693911;84;21920;-68
2022/05/02 05:23:46;;;;;;;8.38;2.55;;;;;;;11.66;45.90;99985.73;1693986;84;21064;-70
2022/05/02 05:26:28;;;;;;;4.62;2.58;;;;;;;11.74;45.80;99986.90;1671916;85;21029;-71
2022/05/02 05:29:18;;;;;;;4.72;2.20;;;;;;;11.84;46.11;99986.63;1677932;85;21024;-73
2022/05/02 05:32:01;;;;;;;3.35;1.95;;;;;;;11.93;45.45;99986.12;1681163;85;22065;-70
2022/05/02 05:34:49;;;;;;;3.35;1.98;;;;;;;12.03;44.81;99988.34;1689475;84;21129;-69
2022/05/02 05:37:43;;;;;;;5.62;2.30;;;;;;;12.11;45.01;99990.34;1668069;84;21040;-69
2022/05/02 05:40:39;;;;;;;7.58;2.15;;;;;;;12.22;45.07;99990.06;1696187;84;21001;-72
2022/05/02 05:43:50;;;;;;;3.80;2.35;;;;;;;12.32;44.18;99983.45;1695234;84;21393;-69
2022/05/02 05:46:53;;;;;;;4.72;2.67;;;;;;;12.41;44.16;99984.28;1693841;84;21098;-72
2022/05/02 05:49:43;;;;;;;5.05;2.58;;;;;;;12.53;44.03;99985.03;1694029;84;21072;-69
2022/05/02 05:52:16;;;;;;;10.60;2.58;;;;;;;12.64;43.97;99982.79;1691450;84;21042;-72
2022/05/02 05:55:18;;;;;;;6.00;2.55;;;;;;;12.75;43.42;99986.04;1651674;83;21154;-71
2022/05/02 05:58:18;;;;;;;6.33;2.67;;;;;;;12.83;42.93;99983.84;1672340;83;21091;-72
2022/05/02 06:00:52;;;;;;;3.90;2.65;;;;;;;12.89;42.75;99985.34;1558673;89;21074;-71
2022/05/02 06:03:24;;;;;;;4.28;2.37;;;;;;;12.96;42.62;99986.23;1559634;89;21884;-73
2022/05/02 06:05:51;;;;;;;7.92;2.42;;;;;;;13.05;42.87;99984.03;1627000;84;21054;-73
2022/05/02 06:08:21;;;;;;;10.13;5.00;;;;;;;13.14;42.67;99984.27;1685651;84;21115;-72
2022/05/02 06:10:50;;;;;;;9.30;3.77;;;;;;;13.25;42.71;99984.77;1688945;84;21094;-73
2022/05/02 06:13:19;;;;;;;5.65;1.70;;;;;;;13.37;42.16;99988.81;1695996;84;21067;-74
2022/05/02 06:18:45;;;;;;;6.80;1.90;;;;;;;13.57;41.85;99983.19;1678666;84;21286;-70
2022/05/02 06:21:26;;;;;;;5.50;1.80;;;;;;;13.67;41.27;99992.27;1632910;87;21149;-72
2022/05/02 06:23:53;;;;;;;4.00;1.85;;;;;;;13.77;40.96;99983.61;1665068;85;21595;-75
2022/05/02 06:26:23;;;;;;;2.33;1.60;;;;;;;13.89;40.69;99984.90;1696554;83;21043;-73
2022/05/02 06:28:52;;;;;;;3.72;1.60;;;;;;;13.99;40.30;99984.50;1702173;82;21125;-73
2022/05/02 06:31:25;;;;;;;4.70;1.60;;;;;;;14.08;40.30;99981.70;1701485;83;21067;-70
2022/05/02 06:33:55;;;;;;;2.92;1.42;;;;;;;14.17;40.08;99987.21;1699004;83;21093;-75
2022/05/02 06:37:04;;;;;;;3.55;1.30;;;;;;;14.23;40.01;99983.09;1684348;84;21015;-73
2022/05/02 06:40:03;;;;;;;8.75;1.50;;;;;;;14.31;39.67;99980.84;1666571;85;21004;-69
2022/05/02 06:43:09;;;;;;;3.72;1.90;;;;;;;14.43;39.93;99977.36;1646921;84;21726;-71
2022/05/02 06:45:56;;;;;;;2.62;1.47;;;;;;;14.55;39.55;99978.02;1703972;83;21029;-70
2022/05/02 06:48:42;;;;;;;3.60;1.75;;;;;;;14.68;39.11;99978.11;1685746;83;21094;-71
2022/05/02 06:51:25;;;;;;;8.13;1.65;;;;;;;14.75;39.17;99979.78;1698026;83;21048;-70
2022/05/02 06:54:16;;;;;;;1.42;1.32;;;;;;;14.82;38.17;99973.13;1684101;84;21030;-75
2022/05/02 06:57:04;;;;;;;2.20;1.30;;;;;;;14.86;38.39;99974.66;1643000;87;21480;-71
2022/05/02 06:59:43;;;;;;;6.22;1.52;;;;;;;14.93;37.82;99974.94;1658487;84;21046;-72
2022/05/02 07:02:36;;;;;;;2.22;1.30;;;;;;;14.96;37.61;99972.87;1685636;84;21103;-73
2022/05/02 07:05:14;;;;;;;2.90;1.20;;;;;;;15.03;38.04;99969.55;1611534;87;21106;-74
2022/05/02 07:08:01;;;;;;;2.75;1.22;;;;;;;15.14;38.11;99968.56;1702966;83;21042;-75
2022/05/02 07:10:36;;;;;;;5.08;1.35;;;;;;;15.24;37.61;99968.72;1690232;83;21160;-74
2022/05/02 07:13:13;;;;;;;3.37;1.30;;;;;;;15.33;37.37;99971.41;1656320;84;21003;-73
2022/05/02 07:15:52;;;;;;;2.52;1.60;;;;;;;15.39;36.86;99969.22;1685612;83;21492;-72
2022/05/02 07:18:36;;;;;;;3.42;1.50;;;;;;;15.49;36.49;99967.40;1658903;86;21052;-73
2022/05/02 07:21:11;;;;;;;3.42;1.30;;;;;;;15.56;36.37;99969.61;1660157;86;21004;-73
2022/05/02 07:24:01;;;;;;;1.35;1.20;;;;;;;15.64;36.64;99963.75;1659011;86;21783;-74
2022/05/02 07:26:36;;;;;;;2.30;1.70;;;;;;;15.71;36.11;99959.84;1660403;86;21009;-70
2022/05/02 07:29:04;;;;;;;5.60;1.35;;;;;;;15.81;35.52;99957.19;1656145;85;21032;-72
2022/05/02 07:31:31;;;;;;;3.95;1.32;;;;;;;15.90;35.72;99959.86;1659959;85;21071;-71
2022/05/02 07:33:59;;;;;;;2.85;1.55;;;;;;;15.97;35.78;99956.52;1636399;87;21119;-75
2022/05/02 07:36:27;;;;;;;3.67;1.52;;;;;;;16.06;35.64;99951.66;1628180;88;21191;-71
2022/05/02 07:39:03;;;;;;;7.65;1.80;;;;;;;16.14;35.27;99952.70;1628337;87;21151;-71
2022/05/02 07:41:35;;;;;;;2.40;1.40;;;;;;;16.19;35.24;99959.41;1621271;87;21079;-74
2022/05/02 07:44:12;;;;;;;1.90;1.47;;;;;;;16.25;34.83;99961.39;1628148;86;21036;-73
2022/05/02 07:46:49;;;;;;;6.15;1.42;;;;;;;16.32;35.46;99955.25;1626228;87;21093;-71
2022/05/02 07:49:18;;;;;;;2.92;1.50;;;;;;;16.42;35.33;99952.81;1627557;87;21080;-74
2022/05/02 07:51:47;;;;;;;3.05;1.25;;;;;;;16.48;34.70;99953.38;1602759;87;21117;-74
2022/05/02 07:54:24;;;;;;;3.08;1.60;;;;;;;16.55;34.86;99951.39;1630178;87;21516;-71
2022/05/02 07:56:52;;;;;;;5.00;1.57;;;;;;;16.62;34.78;99957.17;1628336;87;21029;-70
2022/05/02 07:59:26;;;;;;;5.37;1.47;;;;;;;16.67;33.83;99950.55;1610525;87;21104;-71
2022/05/02 08:01:56;;;;;;;1.55;1.12;;;;;;;16.72;33.83;99956.47;1630546;87;21513;-73
2022/05/02 08:04:28;;;;;;;5.05;1.40;;;;;;;16.75;33.91;99955.77;1628247;87;21329;-72
2022/05/02 08:07:39;;;;;;;2.22;1.30;;;;;;;16.69;33.16;99953.80;1634521;86;21079;-72
2022/05/02 08:10:51;;;;;;;3.60;1.57;;;;;;;16.60;33.37;99946.19;1633727;86;21138;-69
2022/05/02 08:13:58;;;;;;;4.97;1.50;;;;;;;16.66;33.93;99943.38;1680341;85;21099;-69
2022/05/02 08:16:27;;;;;;;2.35;1.50;;;;;;;16.78;33.46;99947.53;1671931;85;22221;-72
2022/05/02 08:19:27;;;;;;;3.15;1.37;;;;;;;16.88;33.20;99945.40;1632999;87;21132;-73
2022/05/02 08:27:15;;;;;;;3.02;1.50;;;;;;;16.92;32.89;99944.94;1662039;86;21072;-71
2022/05/02 08:27:56;;;;;;;3.27;1.57;;;;;;;16.74;33.05;99943.00;1690788;84;21052;-71
2022/05/02 08:30:27;;;;;;;2.30;1.60;;;;;;;16.76;33.56;99930.94;1694332;84;21148;-71
2022/05/02 08:33:05;;;;;;;3.60;1.80;;;;;;;16.88;33.01;99927.31;1694455;84;21066;-72
2022/05/02 08:35:58;;;;;;;21.33;1.72;;;;;;;16.98;32.53;99932.95;1695089;84;21027;-70
2022/05/02 08:38:49;;;;;;;4.42;1.75;;;;;;;17.02;32.96;99920.78;1693478;83;21073;-70
2022/05/02 08:41:33;;;;;;;3.50;1.95;;;;;;;17.13;33.42;99928.05;1687701;84;21520;-75
2022/05/02 08:44:26;;;;;;;3.22;1.60;;;;;;;17.25;33.30;99922.19;1665843;84;21078;-76
2022/05/02 08:47:16;;;;;;;3.87;1.52;;;;;;;17.37;33.46;99920.73;1621776;86;21011;-72
2022/05/02 08:50:09;;;;;;;6.00;2.30;;;;;;;17.50;32.05;99920.67;1634301;86;21062;-73
2022/05/02 08:53:18;;;;;;;5.22;1.60;;;;;;;17.57;31.58;99918.05;1658271;86;21073;-69
2022/05/02 08:56:20;;;;;;;5.83;2.17;;;;;;;17.60;31.66;99915.97;1658234;86;21139;-74
2022/05/02 08:59:18;;;;;;;2.42;1.57;;;;;;;17.70;31.34;99917.41;1619435;86;23053;-75
2022/05/02 09:02:05;;;;;;;5.72;1.65;;;;;;;17.75;31.09;99905.99;1656844;86;21104;-72
2022/05/02 09:05:37;;;;;;;5.58;2.17;;;;;;;17.86;31.18;99898.48;1648745;86;21103;-69
2022/05/02 09:08:38;;;;;;;7.43;1.70;;;;;;;17.99;31.64;99902.78;1658097;86;21060;-70
2022/05/02 09:11:31;;;;;;;2.33;1.50;;;;;;;18.06;30.97;99903.53;1658883;85;21070;-73
2022/05/02 09:14:36;;;;;;;5.95;1.72;;;;;;;18.02;31.11;99897.05;1661011;85;21990;-77
2022/05/02 09:17:33;;;;;;;3.05;1.52;;;;;;;18.00;31.11;99893.23;1659226;85;21078;-72
2022/05/02 09:20:19;;;;;;;3.10;1.80;;;;;;;17.98;31.24;99890.60;1663620;84;22225;-75
2022/05/02 09:23:01;;;;;;;2.75;1.60;;;;;;;17.97;32.27;99881.42;1643959;86;21110;-70
2022/05/02 09:26:17;;;;;;;4.90;1.45;;;;;;;18.04;31.16;99882.17;1640211;86;21074;-74
2022/05/02 09:29:25;;;;;;;5.00;1.35;;;;;;;18.01;31.65;99876.72;1649676;84;21087;-74
2022/05/02 09:32:34;;;;;;;4.55;1.50;;;;;;;18.08;31.18;99872.50;1593654;88;21087;-74
2022/05/02 09:35:04;;;;;;;2.27;1.77;;;;;;;18.17;31.53;99870.95;1596322;88;21083;-77
2022/05/02 09:37:40;;;;;;;2.42;1.27;;;;;;;18.22;31.42;99871.45;1628343;86;21100;-78
2022/05/02 09:40:17;;;;;;;3.92;2.00;;;;;;;18.17;30.79;99866.77;1642169;86;21593;-69
2022/05/02 09:49:33;;;;;;;1.60;1.22;;;;;;;18.04;30.69;99863.23;1648576;86;21194;-73
2022/05/02 09:49:38;;;;;;;2.65;1.50;;;;;;;17.97;30.64;99853.55;1643001;87;21042;-72
2022/05/02 09:53:18;;;;;;;2.55;1.70;;;;;;;17.95;30.90;99853.67;1646285;85;21028;-66
2022/05/02 09:58:56;;;;;;;3.25;1.80;;;;;;;17.75;31.20;99843.30;1565777;89;21249;-75
2022/05/02 10:01:39;;;;;;;3.75;1.65;;;;;;;17.90;31.02;99846.41;1625263;87;21011;-71
2022/05/02 10:04:30;;;;;;;2.35;1.60;;;;;;;18.06;30.44;99846.39;1631128;86;21086;-71
2022/05/02 10:07:11;;;;;;;2.08;1.65;;;;;;;18.21;30.22;99848.94;1626109;87;21057;-75
2022/05/02 10:10:05;;;;;;;6.83;1.90;;;;;;;18.39;30.18;99834.55;1626975;87;21632;-71
2022/05/02 10:13:01;;;;;;;6.77;1.83;;;;;;;18.58;29.77;99836.55;1619174;87;21153;-72
2022/05/02 10:15:48;;;;;;;3.70;2.08;;;;;;;18.72;30.04;99832.42;1616038;87;21031;-72
2022/05/02 10:18:44;;;;;;;9.13;1.98;;;;;;;18.83;30.02;99836.84;1613454;87;21619;-75
2022/05/02 10:21:26;;;;;;;3.37;2.25;;;;;;;18.86;29.51;99836.09;1612139;87;21524;-72
2022/05/02 10:24:43;;;;;;;3.98;1.60;;;;;;;18.95;29.86;99835.87;1615493;87;21092;-71
2022/05/02 10:27:35;;;;;;;5.17;1.60;;;;;;;19.09;29.83;99830.53;1607644;87;21071;-69
2022/05/02 10:34:04;;;;;;;8.20;1.70;;;;;;;19.27;28.92;99816.70;1613528;87;21076;-71
2022/05/02 10:36:37;;;;;;;4.40;1.40;;;;;;;19.42;29.71;99805.17;1615137;87;21070;-73
2022/05/02 10:39:40;;;;;;;3.62;2.30;;;;;;;19.56;29.21;99807.40;1613695;87;21128;-70
2022/05/02 10:42:09;;;;;;;3.25;1.50;;;;;;;19.64;29.83;99802.13;1601661;87;21575;-71
2022/05/02 10:44:46;;;;;;;3.15;1.90;;;;;;;19.75;28.99;99808.48;1616219;87;21577;-73
2022/05/02 10:47:12;;;;;;;3.62;1.60;;;;;;;19.81;28.68;99802.20;1618828;87;21105;-77
2022/05/02 10:50:03;;;;;;;4.55;1.77;;;;;;;19.82;27.71;99798.20;1615161;87;21578;-71
2022/05/02 10:52:44;;;;;;;2.98;1.45;;;;;;;19.80;27.75;99792.20;1615540;87;21618;-72
2022/05/02 10:55:32;;;;;;;4.22;1.60;;;;;;;20.00;29.47;99792.66;1612256;87;21399;-70
2022/05/02 10:58:27;;;;;;;6.40;2.50;;;;;;;20.24;28.30;99790.60;1618864;87;21054;-71
2022/05/02 11:01:19;;;;;;;3.65;1.80;;;;;;;20.19;27.28;99787.55;1611150;87;21106;-71
2022/05/02 11:04:16;;;;;;;4.53;1.98;;;;;;;19.86;27.38;99784.89;1619572;87;21073;-71
2022/05/02 11:07:10;;;;;;;2.85;1.80;;;;;;;19.66;28.06;99780.22;1734514;82;21021;-73
2022/05/02 11:09:46;;;;;;;1.80;1.40;;;;;;;19.66;28.15;99776.61;1734482;81;21526;-73
2022/05/02 11:12:15;;;;;;;6.78;2.27;;;;;;;19.71;28.08;99769.30;1726515;81;21014;-74
2022/05/02 11:15:06;;;;;;;2.83;1.98;;;;;;;19.74;27.77;99766.36;1726672;82;21041;-73
2022/05/02 11:20:41;;;;;;;4.15;2.15;;;;;;;19.67;27.91;99766.45;1726168;81;21041;-74
2022/05/02 11:20:57;;;;;;;2.80;1.92;;;;;;;19.53;27.45;99770.44;1725546;81;21553;-72
2022/05/02 11:23:50;;;;;;;2.65;1.60;;;;;;;19.39;27.89;99771.83;1696549;84;21857;-71
2022/05/02 11:26:37;;;;;;;3.77;1.70;;;;;;;19.40;28.02;99767.84;1696643;83;20998;-72
2022/05/02 11:29:39;;;;;;;3.47;1.95;;;;;;;19.57;29.16;99767.91;1725278;82;21328;-70
2022/05/02 11:32:28;;;;;;;3.08;1.57;;;;;;;19.76;28.31;99755.58;1728778;81;21036;-72
2022/05/02 11:35:06;;;;;;;5.17;1.55;;;;;;;19.86;27.71;99755.55;1698253;82;21109;-73
2022/05/02 11:37:37;;;;;;;3.30;1.85;;;;;;;19.76;27.76;99754.19;1722425;81;22109;-70
2022/05/02 11:40:09;;;;;;;3.12;1.77;;;;;;;19.58;27.54;99747.16;1723111;81;21046;-71
2022/05/02 11:42:36;;;;;;;2.17;1.35;;;;;;;19.43;28.19;99749.54;1728287;82;21066;-70
2022/05/02 11:45:14;;;;;;;3.02;1.82;;;;;;;19.45;28.64;99747.97;1697300;84;21048;-70
2022/05/02 11:48:22;;;;;;;3.98;2.17;;;;;;;19.61;28.46;99740.60;1726152;81;21523;-69
2022/05/02 11:50:48;;;;;;;5.08;1.92;;;;;;;19.77;28.21;99734.23;1728387;81;21110;-68
2022/05/02 11:53:16;;;;;;;3.27;1.72;;;;;;;20.08;29.03;99734.27;1726697;82;20982;-71
2022/05/02 11:55:46;;;;;;;2.85;1.60;;;;;;;20.34;28.35;99724.19;1726620;81;21077;-72
2022/05/02 11:58:30;;;;;;;7.35;1.60;;;;;;;20.59;28.58;99720.06;1723551;81;21464;-72
2022/05/02 12:01:09;;;;;;;3.15;1.77;;;;;;;20.77;27.38;99719.64;1726270;81;21014;-69
2022/05/02 12:03:57;;;;;;;8.20;1.82;;;;;;;20.84;27.05;99714.70;1726763;81;21051;-71
2022/05/02 12:06:36;;;;;;;2.55;1.40;;;;;;;20.81;26.80;99718.28;1702459;83;21627;-73
2022/05/02 12:09:09;;;;;;;2.27;1.52;;;;;;;20.64;26.84;99712.72;1723086;81;21531;-72
2022/05/02 12:11:56;;;;;;;3.05;1.52;;;;;;;20.45;26.89;99713.72;1725359;81;21090;-71
2022/05/02 12:14:22;;;;;;;2.30;1.20;;;;;;;20.23;26.82;99710.10;1724365;81;20990;-72
2022/05/02 12:17:11;;;;;;;1.90;1.47;;;;;;;20.03;26.82;99700.44;1724386;81;21106;-69
2022/05/02 12:19:40;;;;;;;4.53;2.12;;;;;;;19.90;27.17;99692.89;1726897;81;21078;-70
2022/05/02 12:22:17;;;;;;;2.60;1.55;;;;;;;19.82;27.16;99704.56;1734050;81;21554;-71
2022/05/02 12:24:45;;;;;;;3.40;1.77;;;;;;;19.65;26.88;99699.55;1722261;82;21007;-74
2022/05/02 12:27:16;;;;;;;2.40;1.87;;;;;;;19.48;27.25;99698.93;1724499;81;21046;-73
2022/05/02 12:29:42;;;;;;;2.08;1.70;;;;;;;19.53;27.65;99686.00;1708500;82;21244;-70
2022/05/02 12:32:10;;;;;;;4.65;1.65;;;;;;;19.68;27.45;99687.61;1713535;82;21335;-71
2022/05/02 12:34:46;;;;;;;3.75;1.85;;;;;;;19.87;28.65;99683.06;1710239;82;21049;-71
2022/05/02 12:37:23;;;;;;;2.45;1.40;;;;;;;20.12;27.87;99682.58;1679672;83;21029;-69
2022/05/02 12:39:51;;;;;;;4.75;1.92;;;;;;;20.33;27.57;99683.43;1735797;81;20975;-72
2022/05/02 12:42:20;;;;;;;2.00;1.67;;;;;;;20.39;27.36;99684.69;1722588;82;21649;-72
2022/05/02 12:44:53;;;;;;;2.30;1.65;;;;;;;20.37;27.14;99681.45;1720431;83;21511;-73
2022/05/02 12:47:21;;;;;;;;;;;;;;;20.32;26.63;99673.41;1712828;83;21090;-71